Miami, Florida
Current Conditions -  °F | °C
As of 2:53 PM on Tuesday 25 Nov 2014 (Local Time) from KMIA Reporting Station
Broken Clouds Broken Clouds  
Wind Chill: 83°   Ceiling: 2600
Heat Index: 89°   Visibility: 10mi
Dew Point: 73°   Wind: 21mph
Humidity: 72%   Direction: 150°SSE
Pressure: 29.92"   Gusts: 28mph
Location:  25.77°N, 80.19°W
Report Text: KMIA 251953Z 15018G24KT 10SM FEW021 BKN026 BKN250 28/23 A2992 RMK AO2 PK WND 16026/1911 SLP133 T02830228
Loading
Personal Weather Stations






























Interactive Weather Map New forecast layout! Learn more

10-Day Weather Forecast

Advertisements
Track Severe Weather on mobile